sensor_id;sensor_type;location;lat;lon;timestamp;P1;durP1;ratioP1;P2;durP2;ratioP2
82940;SDS011;72715;48.396;-4.472;2023-11-21T00:00:48;2.05;;;0.80;;
82940;SDS011;72715;48.396;-4.472;2023-11-21T00:03:14;3.63;;;0.95;;
82940;SDS011;72715;48.396;-4.472;2023-11-21T00:05:40;1.75;;;0.80;;
82940;SDS011;72715;48.396;-4.472;2023-11-21T00:08:06;3.08;;;0.50;;
82940;SDS011;72715;48.396;-4.472;2023-11-21T00:10:32;2.80;;;0.65;;
82940;SDS011;72715;48.396;-4.472;2023-11-21T00:12:57;2.10;;;0.90;;
82940;SDS011;72715;48.396;-4.472;2023-11-21T00:15:23;3.20;;;1.50;;
82940;SDS011;72715;48.396;-4.472;2023-11-21T00:17:48;1.17;;;0.70;;
82940;SDS011;72715;48.396;-4.472;2023-11-21T00:20:14;9.80;;;2.20;;
82940;SDS011;72715;48.396;-4.472;2023-11-21T00:22:39;2.88;;;0.98;;
82940;SDS011;72715;48.396;-4.472;2023-11-21T00:25:05;7.63;;;2.03;;
82940;SDS011;72715;48.396;-4.472;2023-11-21T00:27:33;8.90;;;1.83;;
82940;SDS011;72715;48.396;-4.472;2023-11-21T00:30:00;0.88;;;0.60;;
82940;SDS011;72715;48.396;-4.472;2023-11-21T00:32:25;6.28;;;1.30;;
82940;SDS011;72715;48.396;-4.472;2023-11-21T00:34:50;2.80;;;1.55;;
82940;SDS011;72715;48.396;-4.472;2023-11-21T00:37:16;4.05;;;1.55;;
82940;SDS011;72715;48.396;-4.472;2023-11-21T00:39:41;2.95;;;1.85;;
82940;SDS011;72715;48.396;-4.472;2023-11-21T00:42:07;1.77;;;1.15;;
82940;SDS011;72715;48.396;-4.472;2023-11-21T00:44:33;6.55;;;3.05;;
82940;SDS011;72715;48.396;-4.472;2023-11-21T00:46:59;12.38;;;4.38;;
82940;SDS011;72715;48.396;-4.472;2023-11-21T00:49:24;12.75;;;3.05;;
82940;SDS011;72715;48.396;-4.472;2023-11-21T00:51:50;14.77;;;2.97;;
82940;SDS011;72715;48.396;-4.472;2023-11-21T00:54:15;4.38;;;1.48;;
82940;SDS011;72715;48.396;-4.472;2023-11-21T00:56:42;3.75;;;2.08;;
82940;SDS011;72715;48.396;-4.472;2023-11-21T00:59:08;7.80;;;2.65;;
82940;SDS011;72715;48.396;-4.472;2023-11-21T01:01:33;8.57;;;2.58;;
82940;SDS011;72715;48.396;-4.472;2023-11-21T01:03:59;7.82;;;2.70;;
82940;SDS011;72715;48.396;-4.472;2023-11-21T01:06:25;6.40;;;2.50;;
82940;SDS011;72715;48.396;-4.472;2023-11-21T01:08:50;22.10;;;3.33;;
82940;SDS011;72715;48.396;-4.472;2023-11-21T01:11:16;11.27;;;2.88;;
82940;SDS011;72715;48.396;-4.472;2023-11-21T01:13:41;5.43;;;2.75;;
82940;SDS011;72715;48.396;-4.472;2023-11-21T01:16:07;8.43;;;2.55;;
82940;SDS011;72715;48.396;-4.472;2023-11-21T01:18:33;16.33;;;3.58;;
82940;SDS011;72715;48.396;-4.472;2023-11-21T01:21:00;12.10;;;5.30;;
82940;SDS011;72715;48.396;-4.472;2023-11-21T01:23:25;17.67;;;3.03;;
82940;SDS011;72715;48.396;-4.472;2023-11-21T01:25:52;15.05;;;3.30;;
82940;SDS011;72715;48.396;-4.472;2023-11-21T01:28:17;12.55;;;3.75;;
82940;SDS011;72715;48.396;-4.472;2023-11-21T01:30:43;20.80;;;4.28;;
82940;SDS011;72715;48.396;-4.472;2023-11-21T01:33:09;3.65;;;2.58;;
82940;SDS011;72715;48.396;-4.472;2023-11-21T01:35:34;5.32;;;2.17;;
82940;SDS011;72715;48.396;-4.472;2023-11-21T01:38:00;12.73;;;2.67;;
82940;SDS011;72715;48.396;-4.472;2023-11-21T01:40:26;3.92;;;2.88;;
82940;SDS011;72715;48.396;-4.472;2023-11-21T01:42:52;7.75;;;2.80;;
82940;SDS011;72715;48.396;-4.472;2023-11-21T01:45:18;15.07;;;2.33;;
82940;SDS011;72715;48.396;-4.472;2023-11-21T01:47:44;14.63;;;3.17;;
82940;SDS011;72715;48.396;-4.472;2023-11-21T01:50:10;18.63;;;4.30;;
82940;SDS011;72715;48.396;-4.472;2023-11-21T01:52:42;23.30;;;4.03;;
82940;SDS011;72715;48.396;-4.472;2023-11-21T01:55:09;17.65;;;3.20;;
82940;SDS011;72715;48.396;-4.472;2023-11-21T01:57:35;11.95;;;2.80;;
82940;SDS011;72715;48.396;-4.472;2023-11-21T02:00:02;8.27;;;3.25;;
82940;SDS011;72715;48.396;-4.472;2023-11-21T02:02:40;14.45;;;5.38;;
82940;SDS011;72715;48.396;-4.472;2023-11-21T02:05:10;10.75;;;3.33;;
82940;SDS011;72715;48.396;-4.472;2023-11-21T02:07:37;11.13;;;2.22;;
82940;SDS011;72715;48.396;-4.472;2023-11-21T02:10:03;11.40;;;2.42;;
82940;SDS011;72715;48.396;-4.472;2023-11-21T02:12:29;11.05;;;3.72;;
82940;SDS011;72715;48.396;-4.472;2023-11-21T02:14:55;9.40;;;3.63;;
82940;SDS011;72715;48.396;-4.472;2023-11-21T02:17:20;11.55;;;4.80;;
82940;SDS011;72715;48.396;-4.472;2023-11-21T02:19:46;18.45;;;4.35;;
82940;SDS011;72715;48.396;-4.472;2023-11-21T02:22:12;11.60;;;4.50;;
82940;SDS011;72715;48.396;-4.472;2023-11-21T02:24:39;7.03;;;1.63;;
82940;SDS011;72715;48.396;-4.472;2023-11-21T02:27:07;17.70;;;4.22;;
82940;SDS011;72715;48.396;-4.472;2023-11-21T02:29:32;8.27;;;2.70;;
82940;SDS011;72715;48.396;-4.472;2023-11-21T02:31:58;22.52;;;5.30;;
82940;SDS011;72715;48.396;-4.472;2023-11-21T02:34:24;10.30;;;3.15;;
82940;SDS011;72715;48.396;-4.472;2023-11-21T02:36:50;9.77;;;3.30;;
82940;SDS011;72715;48.396;-4.472;2023-11-21T02:39:16;8.73;;;3.22;;
82940;SDS011;72715;48.396;-4.472;2023-11-21T02:41:42;6.72;;;3.05;;
82940;SDS011;72715;48.396;-4.472;2023-11-21T02:44:08;9.25;;;3.17;;
82940;SDS011;72715;48.396;-4.472;2023-11-21T02:46:34;15.55;;;3.42;;
82940;SDS011;72715;48.396;-4.472;2023-11-21T02:49:00;11.82;;;3.72;;
82940;SDS011;72715;48.396;-4.472;2023-11-21T02:51:26;5.50;;;2.55;;
82940;SDS011;72715;48.396;-4.472;2023-11-21T02:53:51;9.48;;;2.28;;
82940;SDS011;72715;48.396;-4.472;2023-11-21T02:56:17;9.43;;;2.90;;
82940;SDS011;72715;48.396;-4.472;2023-11-21T02:58:42;10.10;;;2.10;;
82940;SDS011;72715;48.396;-4.472;2023-11-21T03:01:11;8.40;;;2.85;;
82940;SDS011;72715;48.396;-4.472;2023-11-21T03:03:37;8.55;;;3.17;;
82940;SDS011;72715;48.396;-4.472;2023-11-21T03:06:05;9.52;;;2.97;;
82940;SDS011;72715;48.396;-4.472;2023-11-21T03:08:33;10.00;;;2.60;;
82940;SDS011;72715;48.396;-4.472;2023-11-21T03:10:58;21.42;;;3.40;;
82940;SDS011;72715;48.396;-4.472;2023-11-21T03:13:24;6.40;;;2.83;;
82940;SDS011;72715;48.396;-4.472;2023-11-21T03:15:49;8.77;;;2.42;;
82940;SDS011;72715;48.396;-4.472;2023-11-21T03:18:15;14.43;;;3.90;;
82940;SDS011;72715;48.396;-4.472;2023-11-21T03:20:40;10.20;;;3.22;;
82940;SDS011;72715;48.396;-4.472;2023-11-21T03:23:06;8.07;;;2.90;;
82940;SDS011;72715;48.396;-4.472;2023-11-21T03:25:32;7.05;;;2.58;;
82940;SDS011;72715;48.396;-4.472;2023-11-21T03:27:57;13.77;;;3.20;;
82940;SDS011;72715;48.396;-4.472;2023-11-21T03:30:23;7.35;;;2.85;;
82940;SDS011;72715;48.396;-4.472;2023-11-21T03:32:48;7.35;;;2.50;;
82940;SDS011;72715;48.396;-4.472;2023-11-21T03:35:14;8.38;;;3.10;;
82940;SDS011;72715;48.396;-4.472;2023-11-21T03:37:39;6.20;;;2.28;;
82940;SDS011;72715;48.396;-4.472;2023-11-21T03:40:06;18.20;;;5.88;;
82940;SDS011;72715;48.396;-4.472;2023-11-21T03:42:34;11.00;;;2.35;;
82940;SDS011;72715;48.396;-4.472;2023-11-21T03:44:59;15.55;;;4.50;;
82940;SDS011;72715;48.396;-4.472;2023-11-21T03:47:26;4.57;;;2.17;;
82940;SDS011;72715;48.396;-4.472;2023-11-21T03:49:52;10.00;;;3.75;;
82940;SDS011;72715;48.396;-4.472;2023-11-21T03:52:18;13.07;;;3.40;;
82940;SDS011;72715;48.396;-4.472;2023-11-21T03:54:43;7.30;;;2.92;;
82940;SDS011;72715;48.396;-4.472;2023-11-21T03:57:08;8.57;;;2.95;;
82940;SDS011;72715;48.396;-4.472;2023-11-21T03:59:34;18.27;;;5.18;;
82940;SDS011;72715;48.396;-4.472;2023-11-21T04:02:00;10.25;;;3.58;;
82940;SDS011;72715;48.396;-4.472;2023-11-21T04:04:25;9.60;;;3.17;;
82940;SDS011;72715;48.396;-4.472;2023-11-21T04:06:50;6.13;;;2.85;;
82940;SDS011;72715;48.396;-4.472;2023-11-21T04:09:17;16.92;;;4.65;;
82940;SDS011;72715;48.396;-4.472;2023-11-21T04:11:42;8.30;;;2.47;;
82940;SDS011;72715;48.396;-4.472;2023-11-21T04:14:08;13.65;;;4.45;;
82940;SDS011;72715;48.396;-4.472;2023-11-21T04:16:34;12.05;;;3.47;;
82940;SDS011;72715;48.396;-4.472;2023-11-21T04:18:59;9.63;;;3.45;;
82940;SDS011;72715;48.396;-4.472;2023-11-21T04:21:25;12.40;;;4.45;;
82940;SDS011;72715;48.396;-4.472;2023-11-21T04:23:50;13.32;;;3.22;;
82940;SDS011;72715;48.396;-4.472;2023-11-21T04:26:16;21.20;;;6.00;;
82940;SDS011;72715;48.396;-4.472;2023-11-21T04:28:41;14.25;;;4.53;;
82940;SDS011;72715;48.396;-4.472;2023-11-21T04:31:06;22.13;;;5.10;;
82940;SDS011;72715;48.396;-4.472;2023-11-21T04:33:32;17.10;;;3.47;;
82940;SDS011;72715;48.396;-4.472;2023-11-21T04:35:57;14.80;;;4.45;;
82940;SDS011;72715;48.396;-4.472;2023-11-21T04:38:23;13.40;;;3.65;;
82940;SDS011;72715;48.396;-4.472;2023-11-21T04:40:48;13.23;;;4.40;;
82940;SDS011;72715;48.396;-4.472;2023-11-21T04:43:14;17.58;;;5.40;;
82940;SDS011;72715;48.396;-4.472;2023-11-21T04:45:39;9.05;;;2.85;;
82940;SDS011;72715;48.396;-4.472;2023-11-21T04:48:06;22.23;;;4.75;;
82940;SDS011;72715;48.396;-4.472;2023-11-21T04:50:32;7.45;;;2.47;;
82940;SDS011;72715;48.396;-4.472;2023-11-21T04:52:57;7.30;;;3.10;;
82940;SDS011;72715;48.396;-4.472;2023-11-21T04:55:23;24.00;;;5.07;;
82940;SDS011;72715;48.396;-4.472;2023-11-21T04:57:48;9.25;;;2.05;;
82940;SDS011;72715;48.396;-4.472;2023-11-21T05:00:13;17.75;;;3.00;;
82940;SDS011;72715;48.396;-4.472;2023-11-21T05:02:40;12.88;;;3.60;;
82940;SDS011;72715;48.396;-4.472;2023-11-21T05:05:06;17.15;;;3.80;;
82940;SDS011;72715;48.396;-4.472;2023-11-21T05:07:32;9.80;;;2.50;;
82940;SDS011;72715;48.396;-4.472;2023-11-21T05:10:00;10.75;;;3.40;;
82940;SDS011;72715;48.396;-4.472;2023-11-21T05:12:30;23.42;;;4.82;;
82940;SDS011;72715;48.396;-4.472;2023-11-21T05:14:58;21.02;;;4.82;;
82940;SDS011;72715;48.396;-4.472;2023-11-21T05:17:23;7.28;;;3.08;;
82940;SDS011;72715;48.396;-4.472;2023-11-21T05:19:49;21.95;;;4.95;;
82940;SDS011;72715;48.396;-4.472;2023-11-21T05:22:14;16.70;;;5.80;;
82940;SDS011;72715;48.396;-4.472;2023-11-21T05:24:39;14.40;;;4.97;;
82940;SDS011;72715;48.396;-4.472;2023-11-21T05:27:05;36.13;;;6.88;;
82940;SDS011;72715;48.396;-4.472;2023-11-21T05:29:30;8.43;;;4.07;;
82940;SDS011;72715;48.396;-4.472;2023-11-21T05:31:56;11.85;;;4.88;;
82940;SDS011;72715;48.396;-4.472;2023-11-21T05:34:21;11.80;;;6.30;;
82940;SDS011;72715;48.396;-4.472;2023-11-21T05:36:49;11.65;;;2.47;;
82940;SDS011;72715;48.396;-4.472;2023-11-21T05:39:15;18.67;;;5.53;;
82940;SDS011;72715;48.396;-4.472;2023-11-21T05:41:42;4.65;;;2.83;;
82940;SDS011;72715;48.396;-4.472;2023-11-21T05:44:08;14.27;;;3.35;;
82940;SDS011;72715;48.396;-4.472;2023-11-21T05:46:34;23.33;;;5.65;;
82940;SDS011;72715;48.396;-4.472;2023-11-21T05:48:59;20.38;;;4.63;;
82940;SDS011;72715;48.396;-4.472;2023-11-21T05:51:25;15.30;;;5.50;;
82940;SDS011;72715;48.396;-4.472;2023-11-21T05:53:50;9.35;;;2.75;;
82940;SDS011;72715;48.396;-4.472;2023-11-21T05:56:15;10.75;;;3.90;;
82940;SDS011;72715;48.396;-4.472;2023-11-21T05:58:42;9.85;;;3.72;;
82940;SDS011;72715;48.396;-4.472;2023-11-21T06:01:07;8.63;;;3.50;;
82940;SDS011;72715;48.396;-4.472;2023-11-21T06:03:34;17.73;;;4.72;;
82940;SDS011;72715;48.396;-4.472;2023-11-21T06:05:59;9.05;;;3.78;;
82940;SDS011;72715;48.396;-4.472;2023-11-21T06:08:25;15.07;;;4.50;;
82940;SDS011;72715;48.396;-4.472;2023-11-21T06:10:50;9.23;;;2.75;;
82940;SDS011;72715;48.396;-4.472;2023-11-21T06:13:15;12.15;;;3.15;;
82940;SDS011;72715;48.396;-4.472;2023-11-21T06:15:41;10.15;;;3.17;;
82940;SDS011;72715;48.396;-4.472;2023-11-21T06:18:07;10.98;;;3.80;;
82940;SDS011;72715;48.396;-4.472;2023-11-21T06:20:35;13.07;;;4.68;;
82940;SDS011;72715;48.396;-4.472;2023-11-21T06:23:02;16.05;;;4.25;;
82940;SDS011;72715;48.396;-4.472;2023-11-21T06:25:28;20.23;;;4.93;;
82940;SDS011;72715;48.396;-4.472;2023-11-21T06:27:54;17.92;;;7.07;;
82940;SDS011;72715;48.396;-4.472;2023-11-21T06:30:19;14.32;;;5.10;;
82940;SDS011;72715;48.396;-4.472;2023-11-21T06:32:45;16.15;;;4.75;;
82940;SDS011;72715;48.396;-4.472;2023-11-21T06:35:13;9.85;;;3.85;;
82940;SDS011;72715;48.396;-4.472;2023-11-21T06:37:40;23.85;;;5.78;;
82940;SDS011;72715;48.396;-4.472;2023-11-21T06:40:05;17.45;;;5.15;;
82940;SDS011;72715;48.396;-4.472;2023-11-21T06:42:32;11.30;;;5.28;;
82940;SDS011;72715;48.396;-4.472;2023-11-21T06:44:58;17.98;;;5.07;;
82940;SDS011;72715;48.396;-4.472;2023-11-21T06:47:24;18.33;;;6.40;;
82940;SDS011;72715;48.396;-4.472;2023-11-21T06:49:50;20.73;;;6.72;;
82940;SDS011;72715;48.396;-4.472;2023-11-21T06:52:16;9.90;;;4.22;;
82940;SDS011;72715;48.396;-4.472;2023-11-21T06:54:42;13.35;;;4.78;;
82940;SDS011;72715;48.396;-4.472;2023-11-21T06:57:07;19.77;;;4.95;;
82940;SDS011;72715;48.396;-4.472;2023-11-21T06:59:33;25.20;;;7.10;;
82940;SDS011;72715;48.396;-4.472;2023-11-21T07:01:58;19.90;;;4.75;;
82940;SDS011;72715;48.396;-4.472;2023-11-21T07:04:24;21.23;;;5.28;;
82940;SDS011;72715;48.396;-4.472;2023-11-21T07:06:50;16.83;;;6.07;;
82940;SDS011;72715;48.396;-4.472;2023-11-21T07:09:16;30.38;;;6.90;;
82940;SDS011;72715;48.396;-4.472;2023-11-21T07:11:42;17.45;;;6.13;;
82940;SDS011;72715;48.396;-4.472;2023-11-21T07:14:07;24.75;;;6.72;;
82940;SDS011;72715;48.396;-4.472;2023-11-21T07:16:36;21.98;;;5.75;;
82940;SDS011;72715;48.396;-4.472;2023-11-21T07:19:05;24.92;;;5.93;;
82940;SDS011;72715;48.396;-4.472;2023-11-21T07:21:32;36.13;;;8.48;;
82940;SDS011;72715;48.396;-4.472;2023-11-21T07:23:58;27.45;;;7.35;;
82940;SDS011;72715;48.396;-4.472;2023-11-21T07:26:24;13.45;;;6.18;;
82940;SDS011;72715;48.396;-4.472;2023-11-21T07:28:50;27.83;;;7.45;;
82940;SDS011;72715;48.396;-4.472;2023-11-21T07:31:17;18.75;;;6.20;;
82940;SDS011;72715;48.396;-4.472;2023-11-21T07:33:42;20.67;;;6.05;;
82940;SDS011;72715;48.396;-4.472;2023-11-21T07:36:08;25.63;;;4.55;;
82940;SDS011;72715;48.396;-4.472;2023-11-21T07:38:33;27.38;;;8.65;;
82940;SDS011;72715;48.396;-4.472;2023-11-21T07:40:59;20.42;;;5.20;;
82940;SDS011;72715;48.396;-4.472;2023-11-21T07:43:26;23.70;;;7.28;;
82940;SDS011;72715;48.396;-4.472;2023-11-21T07:45:52;26.95;;;6.30;;
82940;SDS011;72715;48.396;-4.472;2023-11-21T07:48:17;15.63;;;6.15;;
82940;SDS011;72715;48.396;-4.472;2023-11-21T07:50:42;23.15;;;5.70;;
82940;SDS011;72715;48.396;-4.472;2023-11-21T07:53:08;35.45;;;6.20;;
82940;SDS011;72715;48.396;-4.472;2023-11-21T07:55:34;19.23;;;6.68;;
82940;SDS011;72715;48.396;-4.472;2023-11-21T07:58:01;27.05;;;6.60;;
82940;SDS011;72715;48.396;-4.472;2023-11-21T08:00:26;36.58;;;6.88;;
82940;SDS011;72715;48.396;-4.472;2023-11-21T08:02:55;40.65;;;8.13;;
82940;SDS011;72715;48.396;-4.472;2023-11-21T08:05:20;23.35;;;7.07;;
82940;SDS011;72715;48.396;-4.472;2023-11-21T08:07:45;36.50;;;9.45;;
82940;SDS011;72715;48.396;-4.472;2023-11-21T08:10:11;31.00;;;6.78;;
82940;SDS011;72715;48.396;-4.472;2023-11-21T08:12:36;20.73;;;7.30;;
82940;SDS011;72715;48.396;-4.472;2023-11-21T08:15:02;26.52;;;8.45;;
82940;SDS011;72715;48.396;-4.472;2023-11-21T08:17:28;21.15;;;5.97;;
82940;SDS011;72715;48.396;-4.472;2023-11-21T08:19:54;21.95;;;5.07;;
82940;SDS011;72715;48.396;-4.472;2023-11-21T08:22:19;32.75;;;9.10;;
82940;SDS011;72715;48.396;-4.472;2023-11-21T08:24:45;14.88;;;5.45;;
82940;SDS011;72715;48.396;-4.472;2023-11-21T08:27:12;14.02;;;5.47;;
82940;SDS011;72715;48.396;-4.472;2023-11-21T08:29:40;36.78;;;8.82;;
82940;SDS011;72715;48.396;-4.472;2023-11-21T08:32:07;14.10;;;4.60;;
82940;SDS011;72715;48.396;-4.472;2023-11-21T08:34:32;28.60;;;6.15;;
82940;SDS011;72715;48.396;-4.472;2023-11-21T08:36:59;31.35;;;6.25;;
82940;SDS011;72715;48.396;-4.472;2023-11-21T08:39:25;23.00;;;6.80;;
82940;SDS011;72715;48.396;-4.472;2023-11-21T08:41:51;24.13;;;7.72;;
82940;SDS011;72715;48.396;-4.472;2023-11-21T08:44:17;33.70;;;7.63;;
82940;SDS011;72715;48.396;-4.472;2023-11-21T08:46:45;20.30;;;6.18;;
82940;SDS011;72715;48.396;-4.472;2023-11-21T08:49:11;12.25;;;5.88;;
82940;SDS011;72715;48.396;-4.472;2023-11-21T08:51:37;14.52;;;3.35;;
82940;SDS011;72715;48.396;-4.472;2023-11-21T08:54:03;17.75;;;5.18;;
82940;SDS011;72715;48.396;-4.472;2023-11-21T08:56:32;14.57;;;5.03;;
82940;SDS011;72715;48.396;-4.472;2023-11-21T08:58:58;13.82;;;6.25;;
82940;SDS011;72715;48.396;-4.472;2023-11-21T09:01:25;34.47;;;6.25;;
82940;SDS011;72715;48.396;-4.472;2023-11-21T09:03:51;18.05;;;3.38;;
82940;SDS011;72715;48.396;-4.472;2023-11-21T09:06:16;19.95;;;4.45;;
82940;SDS011;72715;48.396;-4.472;2023-11-21T09:08:41;11.30;;;5.72;;
82940;SDS011;72715;48.396;-4.472;2023-11-21T09:11:08;11.55;;;4.07;;
82940;SDS011;72715;48.396;-4.472;2023-11-21T09:13:33;14.80;;;3.55;;
82940;SDS011;72715;48.396;-4.472;2023-11-21T09:15:59;25.88;;;5.20;;
82940;SDS011;72715;48.396;-4.472;2023-11-21T09:18:25;18.08;;;4.85;;
82940;SDS011;72715;48.396;-4.472;2023-11-21T09:20:50;20.42;;;6.82;;
82940;SDS011;72715;48.396;-4.472;2023-11-21T09:23:16;18.15;;;4.47;;
82940;SDS011;72715;48.396;-4.472;2023-11-21T09:25:41;15.90;;;4.40;;
82940;SDS011;72715;48.396;-4.472;2023-11-21T09:28:07;20.80;;;5.45;;
82940;SDS011;72715;48.396;-4.472;2023-11-21T09:30:33;12.77;;;4.82;;
82940;SDS011;72715;48.396;-4.472;2023-11-21T09:33:00;22.13;;;4.10;;
82940;SDS011;72715;48.396;-4.472;2023-11-21T09:35:26;8.68;;;4.40;;
82940;SDS011;72715;48.396;-4.472;2023-11-21T09:37:53;18.85;;;5.43;;
82940;SDS011;72715;48.396;-4.472;2023-11-21T09:40:20;24.10;;;5.32;;
82940;SDS011;72715;48.396;-4.472;2023-11-21T09:42:56;20.42;;;5.95;;
82940;SDS011;72715;48.396;-4.472;2023-11-21T09:45:28;14.18;;;5.68;;
82940;SDS011;72715;48.396;-4.472;2023-11-21T09:50:22;18.10;;;5.53;;
82940;SDS011;72715;48.396;-4.472;2023-11-21T09:55:43;21.38;;;4.80;;
82940;SDS011;72715;48.396;-4.472;2023-11-21T09:58:11;12.10;;;4.70;;
82940;SDS011;72715;48.396;-4.472;2023-11-21T10:00:39;15.45;;;3.65;;
82940;SDS011;72715;48.396;-4.472;2023-11-21T10:03:06;19.73;;;4.32;;
82940;SDS011;72715;48.396;-4.472;2023-11-21T10:05:31;7.93;;;4.75;;
82940;SDS011;72715;48.396;-4.472;2023-11-21T10:07:59;17.60;;;4.95;;
82940;SDS011;72715;48.396;-4.472;2023-11-21T10:10:24;11.90;;;3.88;;
82940;SDS011;72715;48.396;-4.472;2023-11-21T10:12:51;8.05;;;3.03;;
82940;SDS011;72715;48.396;-4.472;2023-11-21T10:15:23;4.88;;;2.08;;
82940;SDS011;72715;48.396;-4.472;2023-11-21T10:17:52;41.95;;;5.03;;
82940;SDS011;72715;48.396;-4.472;2023-11-21T10:20:19;19.92;;;4.35;;
82940;SDS011;72715;48.396;-4.472;2023-11-21T10:22:45;19.83;;;4.07;;
82940;SDS011;72715;48.396;-4.472;2023-11-21T10:25:10;6.07;;;2.90;;
82940;SDS011;72715;48.396;-4.472;2023-11-21T10:27:39;9.65;;;3.70;;
82940;SDS011;72715;48.396;-4.472;2023-11-21T10:30:05;24.02;;;4.07;;
82940;SDS011;72715;48.396;-4.472;2023-11-21T10:32:37;6.90;;;2.40;;
82940;SDS011;72715;48.396;-4.472;2023-11-21T10:35:03;8.65;;;3.00;;
82940;SDS011;72715;48.396;-4.472;2023-11-21T10:37:35;5.93;;;2.30;;
82940;SDS011;72715;48.396;-4.472;2023-11-21T10:40:08;5.78;;;2.40;;
82940;SDS011;72715;48.396;-4.472;2023-11-21T10:42:37;4.80;;;2.28;;
82940;SDS011;72715;48.396;-4.472;2023-11-21T10:45:07;6.07;;;1.95;;
82940;SDS011;72715;48.396;-4.472;2023-11-21T10:47:41;14.45;;;2.50;;
82940;SDS011;72715;48.396;-4.472;2023-11-21T10:50:08;11.35;;;2.22;;
82940;SDS011;72715;48.396;-4.472;2023-11-21T10:52:39;16.27;;;6.53;;
82940;SDS011;72715;48.396;-4.472;2023-11-21T10:55:17;6.25;;;1.83;;
82940;SDS011;72715;48.396;-4.472;2023-11-21T10:57:50;10.18;;;2.95;;
82940;SDS011;72715;48.396;-4.472;2023-11-21T11:00:17;30.02;;;2.83;;
82940;SDS011;72715;48.396;-4.472;2023-11-21T11:02:47;28.30;;;3.72;;
82940;SDS011;72715;48.396;-4.472;2023-11-21T11:05:15;6.57;;;3.03;;
82940;SDS011;72715;48.396;-4.472;2023-11-21T11:07:44;4.72;;;1.60;;
82940;SDS011;72715;48.396;-4.472;2023-11-21T11:10:10;11.13;;;2.47;;
82940;SDS011;72715;48.396;-4.472;2023-11-21T11:12:39;10.07;;;1.52;;
82940;SDS011;72715;48.396;-4.472;2023-11-21T11:15:06;6.38;;;2.83;;
82940;SDS011;72715;48.396;-4.472;2023-11-21T11:17:34;19.30;;;3.75;;
82940;SDS011;72715;48.396;-4.472;2023-11-21T11:20:03;9.57;;;3.00;;
82940;SDS011;72715;48.396;-4.472;2023-11-21T11:25:12;5.03;;;2.05;;
82940;SDS011;72715;48.396;-4.472;2023-11-21T11:30:23;7.05;;;2.47;;
82940;SDS011;72715;48.396;-4.472;2023-11-21T11:35:58;18.05;;;4.10;;
82940;SDS011;72715;48.396;-4.472;2023-11-21T11:38:31;4.82;;;2.03;;
82940;SDS011;72715;48.396;-4.472;2023-11-21T11:41:00;19.27;;;3.20;;
82940;SDS011;72715;48.396;-4.472;2023-11-21T11:43:27;12.10;;;2.72;;
82940;SDS011;72715;48.396;-4.472;2023-11-21T11:45:56;10.65;;;2.97;;
82940;SDS011;72715;48.396;-4.472;2023-11-21T11:48:23;14.23;;;2.67;;
82940;SDS011;72715;48.396;-4.472;2023-11-21T11:51:32;10.50;;;2.60;;
82940;SDS011;72715;48.396;-4.472;2023-11-21T11:53:46;21.40;;;2.50;;
82940;SDS011;72715;48.396;-4.472;2023-11-21T11:58:55;8.77;;;3.22;;
82940;SDS011;72715;48.396;-4.472;2023-11-21T12:01:22;7.35;;;1.85;;
82940;SDS011;72715;48.396;-4.472;2023-11-21T12:06:42;14.35;;;6.05;;
82940;SDS011;72715;48.396;-4.472;2023-11-21T12:09:12;9.85;;;2.58;;
82940;SDS011;72715;48.396;-4.472;2023-11-21T12:11:43;15.27;;;3.97;;
82940;SDS011;72715;48.396;-4.472;2023-11-21T12:14:09;13.20;;;3.35;;
82940;SDS011;72715;48.396;-4.472;2023-11-21T12:16:34;5.00;;;1.73;;
82940;SDS011;72715;48.396;-4.472;2023-11-21T12:19:00;5.47;;;2.13;;
82940;SDS011;72715;48.396;-4.472;2023-11-21T12:21:25;11.48;;;3.25;;
82940;SDS011;72715;48.396;-4.472;2023-11-21T12:23:51;6.45;;;1.67;;
82940;SDS011;72715;48.396;-4.472;2023-11-21T12:26:16;3.72;;;2.00;;
82940;SDS011;72715;48.396;-4.472;2023-11-21T12:28:42;2.97;;;1.50;;
82940;SDS011;72715;48.396;-4.472;2023-11-21T12:31:08;6.57;;;2.50;;
82940;SDS011;72715;48.396;-4.472;2023-11-21T12:33:34;7.57;;;2.45;;
82940;SDS011;72715;48.396;-4.472;2023-11-21T12:36:00;9.35;;;3.20;;
82940;SDS011;72715;48.396;-4.472;2023-11-21T12:38:25;5.68;;;2.17;;
82940;SDS011;72715;48.396;-4.472;2023-11-21T12:40:58;15.25;;;4.22;;
82940;SDS011;72715;48.396;-4.472;2023-11-21T12:43:24;5.55;;;3.22;;
82940;SDS011;72715;48.396;-4.472;2023-11-21T12:45:49;4.57;;;2.38;;
82940;SDS011;72715;48.396;-4.472;2023-11-21T12:48:15;9.90;;;2.75;;
82940;SDS011;72715;48.396;-4.472;2023-11-21T12:50:42;10.75;;;5.82;;
82940;SDS011;72715;48.396;-4.472;2023-11-21T12:53:09;8.82;;;2.15;;
82940;SDS011;72715;48.396;-4.472;2023-11-21T12:55:37;7.25;;;3.20;;
82940;SDS011;72715;48.396;-4.472;2023-11-21T12:58:03;6.60;;;1.60;;
82940;SDS011;72715;48.396;-4.472;2023-11-21T13:00:47;20.23;;;3.95;;
82940;SDS011;72715;48.396;-4.472;2023-11-21T13:03:14;7.57;;;3.38;;
82940;SDS011;72715;48.396;-4.472;2023-11-21T13:05:43;14.13;;;2.28;;
82940;SDS011;72715;48.396;-4.472;2023-11-21T13:08:10;11.43;;;3.15;;
82940;SDS011;72715;48.396;-4.472;2023-11-21T13:10:44;3.40;;;1.90;;
82940;SDS011;72715;48.396;-4.472;2023-11-21T13:13:12;5.28;;;1.73;;
82940;SDS011;72715;48.396;-4.472;2023-11-21T13:15:49;8.13;;;1.63;;
82940;SDS011;72715;48.396;-4.472;2023-11-21T13:18:15;8.45;;;1.88;;
82940;SDS011;72715;48.396;-4.472;2023-11-21T13:20:42;6.18;;;1.65;;
82940;SDS011;72715;48.396;-4.472;2023-11-21T13:23:11;6.55;;;3.13;;
82940;SDS011;72715;48.396;-4.472;2023-11-21T13:25:37;5.97;;;1.42;;
82940;SDS011;72715;48.396;-4.472;2023-11-21T13:28:10;5.72;;;1.55;;
82940;SDS011;72715;48.396;-4.472;2023-11-21T13:30:36;11.43;;;2.67;;
82940;SDS011;72715;48.396;-4.472;2023-11-21T13:33:02;5.78;;;1.83;;
82940;SDS011;72715;48.396;-4.472;2023-11-21T13:35:31;5.57;;;2.63;;
82940;SDS011;72715;48.396;-4.472;2023-11-21T13:38:06;2.95;;;1.85;;
82940;SDS011;72715;48.396;-4.472;2023-11-21T13:40:33;12.55;;;3.85;;
82940;SDS011;72715;48.396;-4.472;2023-11-21T13:43:05;6.73;;;1.30;;
82940;SDS011;72715;48.396;-4.472;2023-11-21T13:45:34;7.93;;;2.08;;
82940;SDS011;72715;48.396;-4.472;2023-11-21T13:48:01;3.97;;;1.40;;
82940;SDS011;72715;48.396;-4.472;2023-11-21T13:50:27;8.52;;;2.33;;
82940;SDS011;72715;48.396;-4.472;2023-11-21T13:52:59;5.40;;;1.60;;
82940;SDS011;72715;48.396;-4.472;2023-11-21T13:55:35;5.50;;;1.27;;
82940;SDS011;72715;48.396;-4.472;2023-11-21T13:58:02;6.97;;;1.58;;
82940;SDS011;72715;48.396;-4.472;2023-11-21T14:00:34;2.70;;;1.15;;
82940;SDS011;72715;48.396;-4.472;2023-11-21T14:03:13;3.50;;;1.88;;
82940;SDS011;72715;48.396;-4.472;2023-11-21T14:05:44;4.57;;;0.65;;
82940;SDS011;72715;48.396;-4.472;2023-11-21T14:08:12;4.43;;;0.80;;
82940;SDS011;72715;48.396;-4.472;2023-11-21T14:10:41;6.47;;;0.98;;
82940;SDS011;72715;48.396;-4.472;2023-11-21T14:13:14;5.15;;;1.20;;
82940;SDS011;72715;48.396;-4.472;2023-11-21T14:15:41;4.45;;;0.80;;
82940;SDS011;72715;48.396;-4.472;2023-11-21T14:18:10;1.92;;;1.17;;
82940;SDS011;72715;48.396;-4.472;2023-11-21T14:20:38;3.67;;;1.05;;
82940;SDS011;72715;48.396;-4.472;2023-11-21T14:23:04;17.60;;;2.55;;
82940;SDS011;72715;48.396;-4.472;2023-11-21T14:25:32;6.80;;;0.95;;
82940;SDS011;72715;48.396;-4.472;2023-11-21T14:27:58;2.17;;;1.40;;
82940;SDS011;72715;48.396;-4.472;2023-11-21T14:30:23;0.50;;;0.50;;
82940;SDS011;72715;48.396;-4.472;2023-11-21T14:32:50;2.45;;;1.27;;
82940;SDS011;72715;48.396;-4.472;2023-11-21T14:35:16;7.22;;;1.67;;
82940;SDS011;72715;48.396;-4.472;2023-11-21T14:37:42;4.90;;;2.22;;
82940;SDS011;72715;48.396;-4.472;2023-11-21T14:40:08;10.93;;;2.28;;
82940;SDS011;72715;48.396;-4.472;2023-11-21T14:42:34;6.78;;;0.70;;